createdAt,value
2018-09-15T00:01:30.806Z,18.19
2018-09-15T00:04:01.475Z,18.18
2018-09-15T00:06:32.106Z,18.22
2018-09-15T00:09:02.729Z,18.27
2018-09-15T00:11:33.092Z,18.30
2018-09-15T00:14:03.930Z,18.35
2018-09-15T00:16:34.645Z,18.28
2018-09-15T00:19:05.229Z,18.15
2018-09-15T00:21:36.434Z,18.10
2018-09-15T00:24:07.557Z,18.12
2018-09-15T00:26:38.102Z,18.13
2018-09-15T00:29:10.196Z,18.19
2018-09-15T00:31:41.261Z,18.15
2018-09-15T00:34:12.079Z,18.17
2018-09-15T00:36:42.629Z,18.19
2018-09-15T00:39:13.484Z,18.20
2018-09-15T00:41:44.136Z,18.22
2018-09-15T00:44:14.561Z,18.13
2018-09-15T00:46:45.141Z,18.02
2018-09-15T00:49:15.668Z,18.01
2018-09-15T00:51:46.240Z,17.88
2018-09-15T00:54:17.407Z,17.93
2018-09-15T00:56:48.137Z,17.88
2018-09-15T00:59:18.665Z,17.87
2018-09-15T01:01:49.209Z,17.91
2018-09-15T01:04:20.027Z,17.90
2018-09-15T01:06:50.526Z,17.91
2018-09-15T01:09:20.810Z,17.94
2018-09-15T01:11:51.557Z,17.99
2018-09-15T01:14:22.194Z,17.93
2018-09-15T01:16:53.007Z,17.90
2018-09-15T01:19:23.565Z,17.87
2018-09-15T01:21:54.279Z,17.88
2018-09-15T01:24:25.036Z,17.89
2018-09-15T01:26:55.744Z,17.92
2018-09-15T01:29:26.320Z,17.92
2018-09-15T01:31:56.595Z,17.94
2018-09-15T01:34:27.616Z,17.99
2018-09-15T01:36:58.139Z,18.02
2018-09-15T01:39:28.991Z,18.06
2018-09-15T01:41:59.852Z,17.99
2018-09-15T01:44:31.011Z,17.98
2018-09-15T01:47:01.255Z,17.97
2018-09-15T01:49:32.280Z,17.91
2018-09-15T01:52:02.941Z,17.97
2018-09-15T01:54:33.563Z,18.04
2018-09-15T01:57:04.112Z,18.04
2018-09-15T01:59:34.633Z,18.09
2018-09-15T02:02:05.366Z,18.10
2018-09-15T02:04:35.781Z,18.03
2018-09-15T02:07:06.706Z,18.02
2018-09-15T02:09:37.242Z,18.03
2018-09-15T02:12:07.759Z,18.01
2018-09-15T02:14:39.003Z,17.95
2018-09-15T02:17:10.268Z,17.89
2018-09-15T02:19:41.048Z,17.91
2018-09-15T02:22:11.673Z,17.84
2018-09-15T02:24:42.248Z,17.81
2018-09-15T02:27:13.061Z,17.80
2018-09-15T02:29:44.544Z,17.79
2018-09-15T02:32:15.079Z,17.82
2018-09-15T02:34:45.626Z,17.82
2018-09-15T02:37:16.252Z,17.71
2018-09-15T02:39:46.938Z,17.78
2018-09-15T02:42:17.806Z,17.76
2018-09-15T02:44:48.382Z,17.75
2018-09-15T02:47:19.128Z,17.75
2018-09-15T02:49:49.665Z,17.70
2018-09-15T02:52:20.485Z,17.63
2018-09-15T02:54:50.955Z,17.65
2018-09-15T02:57:21.746Z,17.56
2018-09-15T02:59:52.089Z,17.60
2018-09-15T03:02:23.210Z,17.60
2018-09-15T03:04:54.260Z,17.55
2018-09-15T03:07:24.817Z,17.57
2018-09-15T03:09:55.315Z,17.56
2018-09-15T03:12:25.856Z,17.59
2018-09-15T03:14:56.659Z,17.50
2018-09-15T03:17:26.973Z,17.42
2018-09-15T03:19:57.503Z,17.43
2018-09-15T03:22:28.047Z,17.43
2018-09-15T03:24:58.632Z,17.41
2018-09-15T03:27:29.128Z,17.36
2018-09-15T03:30:00.138Z,17.23
2018-09-15T03:32:30.512Z,17.16
2018-09-15T03:35:01.040Z,17.10
2018-09-15T03:37:32.379Z,17.06
2018-09-15T03:40:04.824Z,17.02
2018-09-15T03:42:36.779Z,17.04
2018-09-15T03:45:09.168Z,17.04
2018-09-15T03:47:40.296Z,17.08
2018-09-15T03:50:10.834Z,17.04
2018-09-15T03:52:41.493Z,17.12
2018-09-15T03:55:12.937Z,17.18
2018-09-15T03:57:43.508Z,17.18
2018-09-15T04:00:14.934Z,17.18
2018-09-15T04:02:45.552Z,17.21
2018-09-15T04:05:16.880Z,17.23
2018-09-15T04:07:47.175Z,17.24
2018-09-15T04:10:18.003Z,17.34
2018-09-15T04:12:48.626Z,17.39
2018-09-15T04:15:21.175Z,17.46
2018-09-15T04:17:52.063Z,17.49
2018-09-15T04:20:23.876Z,17.48
2018-09-15T04:22:54.674Z,17.56
2018-09-15T04:25:25.527Z,17.48
2018-09-15T04:27:56.179Z,17.29
2018-09-15T04:30:26.808Z,17.25
2018-09-15T04:32:57.179Z,17.37
2018-09-15T04:35:27.707Z,17.37
2018-09-15T04:37:58.442Z,17.51
2018-09-15T04:40:28.712Z,17.50
2018-09-15T04:42:59.912Z,17.46
2018-09-15T04:45:30.623Z,17.38
2018-09-15T04:48:01.473Z,17.37
2018-09-15T04:50:31.732Z,17.43
2018-09-15T04:53:02.480Z,17.33
2018-09-15T04:55:33.048Z,17.30
2018-09-15T04:58:04.122Z,17.36
2018-09-15T05:00:34.543Z,17.36
2018-09-15T05:03:05.332Z,17.42
2018-09-15T05:05:35.904Z,17.53
2018-09-15T05:08:06.438Z,17.49
2018-09-15T05:10:36.939Z,17.46
2018-09-15T05:13:08.167Z,17.41
2018-09-15T05:15:39.471Z,17.43
2018-09-15T05:18:10.325Z,17.57
2018-09-15T05:20:41.424Z,17.56
2018-09-15T05:23:11.777Z,17.57
2018-09-15T05:25:42.499Z,17.58
2018-09-15T05:28:13.036Z,17.59
2018-09-15T05:30:43.804Z,17.53
2018-09-15T05:33:14.353Z,17.56
2018-09-15T05:35:44.947Z,17.49
2018-09-15T05:38:15.744Z,17.58
2018-09-15T05:40:46.303Z,17.58
2018-09-15T05:43:16.945Z,17.75
2018-09-15T05:45:48.463Z,17.75
2018-09-15T05:48:18.672Z,17.73
2018-09-15T05:50:49.878Z,17.68
2018-09-15T05:53:20.451Z,17.62
2018-09-15T05:55:51.083Z,17.67
2018-09-15T05:58:21.524Z,17.73
2018-09-15T06:00:54.210Z,17.67
2018-09-15T06:03:24.756Z,17.74
2018-09-15T06:05:55.041Z,17.81
2018-09-15T06:08:25.301Z,17.85
2018-09-15T06:10:55.839Z,17.92
2018-09-15T06:13:29.772Z,17.91
2018-09-15T06:16:00.638Z,17.91
2018-09-15T06:18:31.857Z,18.04
2018-09-15T06:21:02.415Z,18.08
2018-09-15T06:23:32.968Z,18.07
2018-09-15T06:26:04.396Z,18.25
2018-09-15T06:28:36.013Z,18.31
2018-09-15T06:31:07.225Z,18.51
2018-09-15T06:33:37.820Z,18.74
2018-09-15T06:36:08.085Z,18.82
2018-09-15T06:38:39.258Z,18.85
2018-09-15T06:41:09.757Z,18.86
2018-09-15T06:43:41.030Z,19.01
2018-09-15T06:46:11.741Z,19.16
2018-09-15T06:48:42.853Z,19.34
2018-09-15T06:51:13.098Z,19.46
2018-09-15T06:53:43.618Z,19.32
2018-09-15T06:56:14.460Z,19.32
2018-09-15T06:58:44.999Z,19.44
2018-09-15T07:01:15.240Z,19.49
2018-09-15T07:03:45.626Z,19.57
2018-09-15T07:06:16.466Z,19.71
2018-09-15T07:08:46.971Z,19.76
2018-09-15T07:11:18.549Z,19.98
2018-09-15T07:13:49.129Z,20.00
2018-09-15T07:16:19.968Z,20.20
2018-09-15T07:18:50.789Z,20.16
2018-09-15T07:21:21.610Z,20.04
2018-09-15T07:23:51.841Z,20.30
2018-09-15T07:26:22.664Z,20.54
2018-09-15T07:28:53.419Z,20.87
2018-09-15T07:31:24.125Z,20.95
2018-09-15T07:33:55.029Z,21.04
2018-09-15T07:36:25.550Z,20.86
2018-09-15T07:38:56.244Z,20.68
2018-09-15T07:41:27.119Z,20.63
2018-09-15T07:43:57.396Z,20.83
2018-09-15T07:46:27.827Z,21.11
2018-09-15T07:48:58.406Z,21.55
2018-09-15T07:51:28.927Z,21.45
2018-09-15T07:54:00.041Z,21.26
2018-09-15T07:56:30.298Z,21.25
2018-09-15T07:59:01.113Z,21.47
2018-09-15T08:01:32.232Z,21.17
2018-09-15T08:04:02.565Z,21.03
2018-09-15T08:06:34.277Z,21.10
2018-09-15T08:09:05.929Z,21.13
2018-09-15T08:11:39.525Z,21.25
2018-09-15T08:14:13.535Z,21.19
2018-09-15T08:16:44.672Z,21.07
2018-09-15T08:19:15.768Z,21.23
2018-09-15T08:21:47.061Z,21.35
2018-09-15T08:24:18.064Z,21.44
2018-09-15T08:26:48.739Z,21.42
2018-09-15T08:29:19.717Z,21.44
2018-09-15T08:31:50.705Z,21.71
2018-09-15T08:34:22.347Z,21.60
2018-09-15T08:36:57.411Z,21.45
2018-09-15T08:39:27.929Z,21.52
2018-09-15T08:41:58.453Z,21.65
2018-09-15T08:44:32.248Z,21.71
2018-09-15T08:47:03.257Z,21.70
2018-09-15T08:49:33.520Z,21.96
2018-09-15T08:52:04.072Z,22.55
2018-09-15T08:54:34.769Z,23.03
2018-09-15T08:57:05.659Z,23.11
2018-09-15T08:59:36.803Z,22.83
2018-09-15T09:02:14.097Z,22.69
2018-09-15T09:04:45.263Z,22.86
2018-09-15T09:07:15.830Z,22.73
2018-09-15T09:09:46.448Z,22.56
2018-09-15T09:12:17.001Z,22.42
2018-09-15T09:14:47.332Z,22.16
2018-09-15T09:17:17.898Z,22.22
2018-09-15T09:19:48.476Z,21.63
2018-09-15T09:22:18.993Z,22.25
2018-09-15T09:24:49.523Z,22.21
2018-09-15T09:27:20.100Z,22.55
2018-09-15T09:29:51.213Z,22.81
2018-09-15T09:32:21.974Z,22.66
2018-09-15T09:34:52.852Z,22.49
2018-09-15T09:37:23.400Z,22.30
2018-09-15T09:39:53.957Z,22.27
2018-09-15T09:42:25.012Z,22.14
2018-09-15T09:44:55.644Z,22.08
2018-09-15T09:47:26.444Z,22.31
2018-09-15T09:49:57.178Z,22.45
2018-09-15T09:52:27.399Z,23.79
2018-09-15T09:54:57.913Z,27.78
2018-09-15T09:57:28.111Z,27.52
2018-09-15T09:59:58.354Z,25.14
2018-09-15T10:02:28.633Z,23.97
2018-09-15T10:04:58.920Z,23.87
2018-09-15T10:07:29.426Z,22.99
2018-09-15T10:09:59.717Z,22.51
2018-09-15T10:12:30.384Z,22.64
2018-09-15T10:15:01.037Z,22.73
2018-09-15T10:17:31.775Z,23.28
2018-09-15T10:20:03.485Z,22.99
2018-09-15T10:22:34.467Z,23.34
2018-09-15T10:25:05.282Z,25.25
2018-09-15T10:27:35.810Z,24.31
2018-09-15T10:30:06.483Z,24.01
2018-09-15T10:32:37.455Z,23.97
2018-09-15T10:35:07.828Z,26.01
2018-09-15T10:37:38.061Z,26.02
2018-09-15T10:40:08.588Z,25.07
2018-09-15T10:42:39.244Z,24.62
2018-09-15T10:45:10.000Z,24.46
2018-09-15T10:47:40.655Z,25.03
2018-09-15T10:50:11.352Z,24.76
2018-09-15T10:52:42.009Z,24.45
2018-09-15T10:55:13.533Z,24.36
2018-09-15T10:57:44.032Z,24.56
2018-09-15T11:00:14.590Z,24.63
2018-09-15T11:02:47.030Z,24.53
2018-09-15T11:05:17.624Z,24.62
2018-09-15T11:07:48.160Z,24.34
2018-09-15T11:10:18.700Z,24.43
2018-09-15T11:12:49.292Z,25.15
2018-09-15T11:15:19.629Z,25.66
2018-09-15T11:17:50.207Z,24.96
2018-09-15T11:20:20.738Z,24.83
2018-09-15T11:22:51.517Z,24.67
2018-09-15T11:25:21.901Z,24.36
2018-09-15T11:27:52.454Z,24.50
2018-09-15T11:30:23.072Z,24.22
2018-09-15T11:32:53.627Z,24.01
2018-09-15T11:35:24.159Z,23.77
2018-09-15T11:37:54.689Z,23.55
2018-09-15T11:40:25.810Z,23.38
2018-09-15T11:42:56.487Z,23.27
2018-09-15T11:45:27.024Z,23.27
2018-09-15T11:47:57.544Z,23.44
2018-09-15T11:50:28.284Z,23.53
2018-09-15T11:52:59.383Z,23.34
2018-09-15T11:55:30.077Z,23.55
2018-09-15T11:58:00.579Z,23.61
2018-09-15T12:00:33.022Z,23.79
2018-09-15T12:03:03.556Z,23.87
2018-09-15T12:05:33.856Z,23.69
2018-09-15T12:08:04.092Z,23.22
2018-09-15T12:10:34.344Z,23.09
2018-09-15T12:13:05.010Z,23.41
2018-09-15T12:15:35.241Z,23.66
2018-09-15T12:18:06.186Z,23.64
2018-09-15T12:20:36.787Z,23.77
2018-09-15T12:23:07.552Z,24.07
2018-09-15T12:25:38.484Z,24.93
2018-09-15T12:28:08.692Z,24.79
2018-09-15T12:30:39.324Z,24.73
2018-09-15T12:33:09.865Z,25.49
2018-09-15T12:35:41.053Z,25.83
2018-09-15T12:38:12.312Z,26.15
2018-09-15T12:40:42.800Z,26.29
2018-09-15T12:43:13.279Z,26.00
2018-09-15T12:45:43.919Z,25.38
2018-09-15T12:48:14.420Z,25.36
2018-09-15T12:50:45.030Z,25.23
2018-09-15T12:53:15.311Z,25.21
2018-09-15T12:55:46.007Z,25.04
2018-09-15T12:58:20.041Z,24.62
2018-09-15T13:00:50.889Z,24.76
2018-09-15T13:03:21.443Z,24.68
2018-09-15T13:05:52.249Z,24.52
2018-09-15T13:08:22.811Z,24.31
2018-09-15T13:10:53.312Z,24.36
2018-09-15T13:13:24.033Z,24.25
2018-09-15T13:15:54.572Z,24.34
2018-09-15T13:18:25.450Z,24.10
2018-09-15T13:20:56.001Z,23.71
2018-09-15T13:23:26.745Z,24.02
2018-09-15T13:25:57.461Z,24.30
2018-09-15T13:28:28.079Z,24.28
2018-09-15T13:30:58.919Z,24.00
2018-09-15T13:33:29.476Z,23.70
2018-09-15T13:35:59.697Z,23.31
2018-09-15T13:38:30.362Z,23.47
2018-09-15T13:41:00.878Z,23.37
2018-09-15T13:43:31.147Z,23.60
2018-09-15T13:46:01.753Z,23.59
2018-09-15T13:48:32.311Z,23.44
2018-09-15T13:51:03.151Z,23.52
2018-09-15T13:53:35.581Z,23.27
2018-09-15T13:56:06.042Z,23.18
2018-09-15T13:58:36.700Z,23.08
2018-09-15T14:01:07.650Z,23.18
2018-09-15T14:03:38.380Z,23.12
2018-09-15T14:06:09.089Z,23.25
2018-09-15T14:08:39.377Z,23.18
2018-09-15T14:11:09.819Z,23.16
2018-09-15T14:13:40.283Z,23.04
2018-09-15T14:16:10.808Z,23.04
2018-09-15T14:18:41.505Z,23.33
2018-09-15T14:21:17.432Z,23.11
2018-09-15T14:23:47.659Z,23.11
2018-09-15T14:26:18.210Z,22.95
2018-09-15T14:28:48.726Z,22.89
2018-09-15T14:31:18.964Z,22.89
2018-09-15T14:33:49.483Z,22.95
2018-09-15T14:36:20.000Z,22.81
2018-09-15T14:38:50.508Z,22.68
2018-09-15T14:41:21.280Z,22.58
2018-09-15T14:43:51.979Z,22.62
2018-09-15T14:46:22.225Z,22.80
2018-09-15T14:48:52.768Z,22.81
2018-09-15T14:51:23.461Z,22.80
2018-09-15T14:53:53.942Z,22.94
2018-09-15T14:56:24.868Z,22.77
2018-09-15T14:58:55.567Z,22.92
2018-09-15T15:01:26.184Z,22.95
2018-09-15T15:03:56.682Z,23.19
2018-09-15T15:06:27.331Z,23.28
2018-09-15T15:08:58.214Z,23.20
2018-09-15T15:11:28.758Z,23.11
2018-09-15T15:13:59.000Z,23.18
2018-09-15T15:16:29.512Z,23.37
2018-09-15T15:19:00.023Z,23.39
2018-09-15T15:21:30.549Z,23.37
2018-09-15T15:24:01.593Z,23.39
2018-09-15T15:26:32.037Z,23.33
2018-09-15T15:29:02.391Z,23.52
2018-09-15T15:31:32.796Z,23.33
2018-09-15T15:34:03.477Z,23.30
2018-09-15T15:36:34.070Z,23.38
2018-09-15T15:39:05.062Z,23.33
2018-09-15T15:41:35.957Z,22.92
2018-09-15T15:44:06.585Z,23.14
2018-09-15T15:46:37.232Z,23.14
2018-09-15T15:49:07.985Z,23.06
2018-09-15T15:51:38.565Z,23.09
2018-09-15T15:54:09.533Z,23.06
2018-09-15T15:56:39.808Z,22.89
2018-09-15T15:59:14.210Z,22.81
2018-09-15T16:01:45.110Z,22.78
2018-09-15T16:04:15.875Z,22.94
2018-09-15T16:06:46.584Z,22.87
2018-09-15T16:09:17.135Z,22.80
2018-09-15T16:11:47.608Z,22.87
2018-09-15T16:14:18.963Z,22.77
2018-09-15T16:17:04.419Z,22.56
2018-09-15T16:19:34.972Z,22.53
2018-09-15T16:22:06.249Z,22.71
2018-09-15T16:24:36.776Z,22.76
2018-09-15T16:27:07.344Z,22.68
2018-09-15T16:29:37.892Z,22.83
2018-09-15T16:32:08.222Z,22.57
2018-09-15T16:34:38.992Z,22.60
2018-09-15T16:37:09.236Z,22.80
2018-09-15T16:39:39.878Z,22.78
2018-09-15T16:42:10.596Z,22.74
2018-09-15T16:44:41.449Z,22.91
2018-09-15T16:47:12.023Z,22.74
2018-09-15T16:49:42.585Z,22.98
2018-09-15T16:52:13.097Z,23.00
2018-09-15T16:54:43.847Z,22.86
2018-09-15T16:57:14.385Z,22.92
2018-09-15T16:59:45.390Z,22.64
2018-09-15T17:02:16.050Z,22.31
2018-09-15T17:04:46.579Z,22.26
2018-09-15T17:07:17.165Z,22.38
2018-09-15T17:09:48.572Z,22.33
2018-09-15T17:12:19.431Z,22.28
2018-09-15T17:14:50.371Z,22.24
2018-09-15T17:17:21.210Z,22.07
2018-09-15T17:19:52.049Z,22.19
2018-09-15T17:22:22.395Z,22.01
2018-09-15T17:24:53.100Z,22.07
2018-09-15T17:27:23.739Z,22.17
2018-09-15T17:29:54.330Z,22.35
2018-09-15T17:32:24.899Z,22.27
2018-09-15T17:34:55.908Z,22.41
2018-09-15T17:37:26.560Z,22.27
2018-09-15T17:39:57.563Z,22.16
2018-09-15T17:42:28.340Z,21.91
2018-09-15T17:44:58.871Z,21.60
2018-09-15T17:47:30.024Z,21.53
2018-09-15T17:50:00.308Z,21.45
2018-09-15T17:52:30.868Z,21.46
2018-09-15T17:55:01.619Z,21.47
2018-09-15T17:57:32.670Z,21.49
2018-09-15T18:00:04.185Z,21.57
2018-09-15T18:02:34.621Z,21.54
2018-09-15T18:05:06.239Z,21.52
2018-09-15T18:07:36.620Z,21.57
2018-09-15T18:10:07.585Z,20.87
2018-09-15T18:12:38.592Z,21.28
2018-09-15T18:15:10.175Z,20.74
2018-09-15T18:17:40.849Z,21.23
2018-09-15T18:20:11.507Z,21.33
2018-09-15T18:22:42.105Z,21.28
2018-09-15T18:25:12.385Z,21.23
2018-09-15T18:27:43.332Z,21.27
2018-09-15T18:30:14.192Z,21.47
2018-09-15T18:32:44.691Z,21.48
2018-09-15T18:35:15.417Z,21.38
2018-09-15T18:37:46.023Z,21.50
2018-09-15T18:40:16.535Z,21.38
2018-09-15T18:42:47.140Z,21.53
2018-09-15T18:45:17.983Z,21.33
2018-09-15T18:47:48.703Z,21.24
2018-09-15T18:50:19.438Z,21.31
2018-09-15T18:52:49.980Z,21.30
2018-09-15T18:55:20.620Z,21.30
2018-09-15T18:57:51.363Z,21.28
2018-09-15T19:00:23.059Z,21.15
2018-09-15T19:02:53.784Z,21.13
2018-09-15T19:05:24.329Z,21.27
2018-09-15T19:07:54.877Z,21.38
2018-09-15T19:10:25.741Z,21.24
2018-09-15T19:12:56.481Z,21.17
2018-09-15T19:15:26.926Z,21.18
2018-09-15T19:17:57.430Z,21.28
2018-09-15T19:20:27.980Z,21.29
2018-09-15T19:22:58.209Z,21.37
2018-09-15T19:25:29.413Z,21.42
2018-09-15T19:27:59.640Z,21.41
2018-09-15T19:30:29.955Z,21.41
2018-09-15T19:33:00.407Z,21.42
2018-09-15T19:35:30.986Z,21.36
2018-09-15T19:38:01.437Z,21.46
2018-09-15T19:40:31.974Z,21.49
2018-09-15T19:43:02.535Z,21.59
2018-09-15T19:45:34.379Z,21.34
2018-09-15T19:48:05.226Z,21.24
2018-09-15T19:50:36.149Z,21.38
2018-09-15T19:53:06.921Z,21.59
2018-09-15T19:55:37.466Z,21.75
2018-09-15T19:58:08.253Z,21.65
2018-09-15T20:00:38.992Z,21.66
2018-09-15T20:03:13.140Z,21.26
2018-09-15T20:05:44.571Z,21.32
2018-09-15T20:08:15.229Z,21.33
2018-09-15T20:10:45.715Z,21.10
2018-09-15T20:13:16.590Z,20.97
2018-09-15T20:15:45.933Z,20.91
2018-09-15T20:18:15.008Z,21.08
2018-09-15T20:20:45.286Z,21.14
2018-09-15T20:23:15.645Z,21.30
2018-09-15T20:25:46.211Z,21.17
2018-09-15T20:28:16.592Z,21.12
2018-09-15T20:30:47.176Z,21.19
2018-09-15T20:33:17.790Z,21.09
2018-09-15T20:35:48.420Z,21.01
2018-09-15T20:38:20.049Z,21.05
2018-09-15T20:40:50.631Z,20.98
2018-09-15T20:43:21.312Z,20.94
2018-09-15T20:45:51.904Z,21.07
2018-09-15T20:48:22.542Z,21.31
2018-09-15T20:50:54.145Z,21.38
2018-09-15T20:53:25.734Z,21.29
2018-09-15T20:55:56.757Z,21.33
2018-09-15T20:58:27.360Z,21.49
2018-09-15T21:00:57.740Z,21.38
2018-09-15T21:03:28.937Z,21.25
2018-09-15T21:05:59.611Z,21.12
2018-09-15T21:08:30.271Z,20.82
2018-09-15T21:11:00.666Z,20.63
2018-09-15T21:13:31.264Z,20.55
2018-09-15T21:16:01.919Z,20.56
2018-09-15T21:18:33.009Z,20.54
2018-09-15T21:21:03.752Z,20.47
2018-09-15T21:23:34.236Z,20.43
2018-09-15T21:26:05.192Z,20.46
2018-09-15T21:28:36.393Z,20.41
2018-09-15T21:31:07.065Z,20.27
2018-09-15T21:33:38.255Z,20.14
2018-09-15T21:36:09.110Z,20.16
2018-09-15T21:38:39.905Z,20.11
2018-09-15T21:41:10.467Z,20.00
2018-09-15T21:43:41.095Z,19.99
2018-09-15T21:46:11.934Z,20.07
2018-09-15T21:48:43.315Z,19.95
2018-09-15T21:51:16.947Z,19.94
2018-09-15T21:53:47.561Z,19.83
2018-09-15T21:56:18.151Z,19.87
2018-09-15T21:58:49.052Z,19.99
2018-09-15T22:01:19.668Z,20.18
2018-09-15T22:03:55.121Z,20.13
2018-09-15T22:06:25.709Z,20.11
2018-09-15T22:08:56.297Z,19.99
2018-09-15T22:11:26.967Z,19.84
2018-09-15T22:13:57.636Z,19.77
2018-09-15T22:16:28.426Z,19.83
2018-09-15T22:18:59.064Z,19.90
2018-09-15T22:21:29.884Z,19.96
2018-09-15T22:24:00.517Z,20.06
2018-09-15T22:26:31.252Z,20.14
2018-09-15T22:29:02.216Z,19.94
2018-09-15T22:31:33.307Z,19.81
2018-09-15T22:34:03.757Z,19.79
2018-09-15T22:36:34.612Z,19.65
2018-09-15T22:39:07.523Z,19.68
2018-09-15T22:41:39.009Z,19.73
2018-09-15T22:44:09.294Z,19.79
2018-09-15T22:46:39.820Z,19.86
2018-09-15T22:49:10.060Z,19.94
2018-09-15T22:51:40.902Z,20.09
2018-09-15T22:54:11.488Z,20.05
2018-09-15T22:56:42.854Z,19.93
2018-09-15T22:59:14.246Z,19.83
2018-09-15T23:01:44.752Z,19.65
2018-09-15T23:04:16.265Z,19.42
2018-09-15T23:06:46.709Z,19.45
2018-09-15T23:09:17.357Z,19.27
2018-09-15T23:11:47.644Z,19.20
2018-09-15T23:14:18.465Z,19.00
2018-09-15T23:16:49.057Z,18.91
2018-09-15T23:19:20.316Z,18.98
2018-09-15T23:21:50.892Z,19.04
2018-09-15T23:24:21.492Z,19.33
2018-09-15T23:26:52.301Z,19.39
2018-09-15T23:29:22.947Z,19.54
2018-09-15T23:31:53.171Z,19.28
2018-09-15T23:34:23.709Z,19.15
2018-09-15T23:36:54.348Z,19.13
2018-09-15T23:39:24.867Z,19.11
2018-09-15T23:41:55.439Z,18.77
2018-09-15T23:44:25.752Z,18.91
2018-09-15T23:46:56.220Z,18.64
2018-09-15T23:49:27.194Z,18.85
2018-09-15T23:51:57.695Z,18.81
2018-09-15T23:54:28.255Z,18.89
2018-09-15T23:56:59.004Z,18.86
2018-09-15T23:59:29.552Z,18.83
